Time;durP1;ratioP1;P1;durP2;ratioP2;P2;SDS_P1;SDS_P2;PMS_P1;PMS_P2;Temp;Humidity;BMP_temperature;BMP_pressure;BME280_temperature;BME280_humidity;BME280_pressure;Samples;Min_cycle;Max_cycle;Signal;HPM_P1;HPM_P2
2022/06/14 00:00:55;;;;;;;13.33;6.73;;;;;;;21.46;57.72;99946.00;123471;1102;104376;-81
2022/06/14 00:03:45;;;;;;;19.43;7.57;;;;;;;21.47;58.38;99940.64;123461;1102;104226;-81
2022/06/14 00:06:34;;;;;;;13.73;7.40;;;;;;;21.48;58.79;99945.05;123062;1102;104402;-80
2022/06/14 00:09:04;;;;;;;12.77;6.80;;;;;;;21.48;58.14;99944.18;123075;1102;104478;-80
2022/06/14 00:11:35;;;;;;;18.47;7.10;;;;;;;21.46;58.16;99944.20;123233;1102;104304;-80
2022/06/14 00:14:06;;;;;;;16.95;7.30;;;;;;;21.43;58.35;99944.26;123189;1102;104437;-80
2022/06/14 00:16:35;;;;;;;13.90;7.10;;;;;;;21.42;58.41;99938.95;123406;1102;104460;-80
2022/06/14 00:19:05;;;;;;;12.55;6.80;;;;;;;21.44;58.95;99939.80;123495;1102;104567;-80
2022/06/14 00:21:35;;;;;;;13.13;6.90;;;;;;;21.37;59.50;99941.70;123523;1102;104303;-80
2022/06/14 00:24:05;;;;;;;14.43;7.20;;;;;;;21.31;59.32;99947.14;123575;1102;104784;-80
2022/06/14 00:26:34;;;;;;;12.80;7.03;;;;;;;21.23;58.92;99949.07;123509;1102;104424;-80
2022/06/14 00:29:03;;;;;;;13.73;7.07;;;;;;;21.11;59.67;99948.34;123097;1102;104493;-80
2022/06/14 00:31:32;;;;;;;14.50;7.70;;;;;;;21.06;59.61;99947.55;123375;1102;104236;-80
2022/06/14 00:34:01;;;;;;;14.03;7.47;;;;;;;21.02;59.83;99940.52;123152;1102;104456;-80
2022/06/14 00:36:33;;;;;;;15.33;7.80;;;;;;;21.04;59.86;99936.03;123380;1102;104402;-80
2022/06/14 00:39:04;;;;;;;14.97;7.43;;;;;;;21.08;59.23;99934.19;123464;1102;104267;-79
2022/06/14 00:41:38;;;;;;;12.73;7.17;;;;;;;21.08;59.94;99935.05;123457;1102;104168;-80
2022/06/14 00:44:07;;;;;;;;;;;;;;;21.01;58.87;99931.62;123517;1102;104223;-80
2022/06/14 00:46:39;;;;;;;12.60;6.90;;;;;;;20.96;59.19;99936.16;123466;1102;104251;-80
2022/06/14 00:49:15;;;;;;;14.10;7.40;;;;;;;20.91;59.37;99934.45;123347;1102;104242;-80
2022/06/14 00:51:51;;;;;;;12.90;7.07;;;;;;;20.90;59.85;99932.71;123462;1102;104397;-80
2022/06/14 00:54:25;;;;;;;15.90;7.03;;;;;;;20.85;60.18;99939.87;123486;1102;104290;-80
2022/06/14 00:56:57;;;;;;;18.02;7.30;;;;;;;20.75;60.75;99934.69;123376;1102;104268;-80
2022/06/14 00:59:32;;;;;;;14.20;6.90;;;;;;;20.70;60.95;99933.89;123431;1102;104834;-81
2022/06/14 01:02:09;;;;;;;12.23;7.33;;;;;;;20.66;61.29;99937.48;123477;1102;104267;-80
2022/06/14 01:04:38;;;;;;;15.77;7.10;;;;;;;20.60;61.44;99934.88;123502;1102;104300;-80
2022/06/14 01:07:12;;;;;;;13.97;7.30;;;;;;;20.52;61.38;99944.77;123274;1102;104293;-80
2022/06/14 01:09:45;;;;;;;14.50;7.10;;;;;;;20.43;60.75;99945.80;123410;1102;104341;-81
2022/06/14 01:12:17;;;;;;;12.63;7.08;;;;;;;20.34;61.07;99944.12;123470;1100;104293;-80
2022/06/14 01:14:56;;;;;;;13.07;7.30;;;;;;;20.25;61.95;99955.78;123485;1102;104300;-80
2022/06/14 01:17:25;;;;;;;15.17;7.30;;;;;;;20.15;62.76;99955.91;123516;1102;104294;-80
2022/06/14 01:19:54;;;;;;;14.27;7.43;;;;;;;20.05;62.39;99963.13;123403;1102;104248;-80
2022/06/14 01:22:28;;;;;;;14.20;7.50;;;;;;;19.99;62.96;99948.13;123474;1102;104412;-79
2022/06/14 01:25:00;;;;;;;15.43;7.50;;;;;;;19.98;63.09;99951.69;123485;1102;104360;-80
2022/06/14 01:27:32;;;;;;;15.00;7.50;;;;;;;19.97;63.21;99955.23;123354;1102;104280;-80
2022/06/14 01:30:06;;;;;;;11.93;7.33;;;;;;;19.96;62.51;99953.49;123485;1102;104252;-80
2022/06/14 01:32:39;;;;;;;14.10;7.50;;;;;;;19.93;63.06;99956.19;123522;1102;104239;-80
2022/06/14 01:35:14;;;;;;;14.80;7.00;;;;;;;19.90;63.41;99964.21;123465;1102;104383;-80
2022/06/14 01:37:44;;;;;;;10.90;7.27;;;;;;;19.86;63.78;99965.13;123712;1099;104248;-80
2022/06/14 01:40:14;;;;;;;12.17;7.27;;;;;;;19.81;63.83;99967.84;123483;1099;104296;-80
2022/06/14 01:43:02;;;;;;;14.97;8.27;;;;;;;19.78;64.14;99962.55;123473;1099;104233;-80
2022/06/14 01:45:40;;;;;;;15.00;7.97;;;;;;;19.75;63.62;99963.42;123486;1099;104386;-80
2022/06/14 01:48:20;;;;;;;12.47;7.03;;;;;;;19.70;63.81;99957.27;123794;1098;104865;-80
2022/06/14 01:53:54;;;;;;;16.17;7.50;;;;;;;19.65;64.58;99961.77;123777;1099;104239;-80
2022/06/14 01:56:38;;;;;;;14.67;7.70;;;;;;;19.65;64.46;99964.44;123755;1099;104380;-80
2022/06/14 01:59:10;;;;;;;;;;;;;;;19.60;64.12;99957.38;123503;1099;118596;-79
2022/06/14 02:01:47;;;;;;;11.93;7.60;;;;;;;19.57;64.34;99959.19;123520;1098;104368;-80
2022/06/14 02:04:39;;;;;;;13.40;7.73;;;;;;;19.58;64.50;99965.38;123387;1098;104242;-80
2022/06/14 02:07:19;;;;;;;14.00;7.60;;;;;;;19.57;64.14;99958.28;123251;1099;104238;-80
2022/06/14 02:09:59;;;;;;;14.20;6.83;;;;;;;19.58;64.75;99957.39;123685;1099;104242;-79
2022/06/14 02:12:36;;;;;;;11.60;6.85;;;;;;;19.58;65.22;99965.38;123782;1099;104213;-79
2022/06/14 02:15:15;;;;;;;12.70;7.30;;;;;;;19.59;65.65;99967.16;123574;1099;104389;-80
2022/06/14 02:17:48;;;;;;;13.70;7.60;;;;;;;19.57;65.49;99974.25;123536;1099;104242;-80
2022/06/14 02:20:20;;;;;;;13.63;7.50;;;;;;;19.55;65.12;99979.58;123572;1099;104386;-79
2022/06/14 02:22:55;;;;;;;13.70;7.73;;;;;;;19.53;65.46;99981.39;123994;1099;104768;-79
2022/06/14 02:25:32;;;;;;;13.60;7.53;;;;;;;19.53;65.78;99976.06;123961;1099;104223;-79
2022/06/14 02:28:07;;;;;;;10.87;6.50;;;;;;;19.53;65.94;99976.06;123946;1099;104338;-79
2022/06/14 02:30:43;;;;;;;11.57;6.93;;;;;;;19.55;65.61;99979.58;123972;1099;104194;-80
2022/06/14 02:33:20;;;;;;;16.40;7.23;;;;;;;19.58;65.86;99984.01;123943;1099;104373;-80
2022/06/14 02:35:54;;;;;;;10.27;6.13;;;;;;;19.63;66.53;99991.95;124388;1099;104161;-80
2022/06/14 02:38:33;;;;;;;12.63;7.10;;;;;;;19.67;66.24;99983.92;124000;1099;104359;-80
2022/06/14 02:41:06;;;;;;;12.63;6.90;;;;;;;19.70;65.93;99985.68;123997;1099;104399;-80
2022/06/14 02:43:37;;;;;;;;;;;;;;;19.71;65.99;99988.33;123466;1099;104376;-80
2022/06/14 02:46:20;;;;;;;12.80;6.90;;;;;;;19.73;66.59;99990.97;123464;1099;104242;-79
2022/06/14 02:48:53;;;;;;;12.67;6.83;;;;;;;19.72;66.30;99987.41;123488;1099;104370;-79
2022/06/14 02:51:27;;;;;;;12.00;6.67;;;;;;;19.74;67.37;99990.05;123448;1100;104331;-80
2022/06/14 02:54:00;;;;;;;12.20;7.00;;;;;;;19.74;67.90;99987.39;123448;1102;104457;-80
2022/06/14 02:56:54;;;;;;;14.10;6.83;;;;;;;19.74;67.96;99988.30;123410;1099;104252;-80
2022/06/14 02:59:45;;;;;;;12.75;7.20;;;;;;;19.75;67.70;99999.81;123697;1101;104332;-80
2022/06/14 03:02:42;;;;;;;12.33;7.20;;;;;;;19.74;67.71;99995.38;123909;1099;104251;-80
2022/06/14 03:05:35;;;;;;;15.87;7.00;;;;;;;19.77;67.81;100002.50;123994;1099;104451;-79
2022/06/14 03:08:26;;;;;;;11.50;6.85;;;;;;;19.80;68.46;100007.79;123935;1099;104300;-79
2022/06/14 03:11:24;;;;;;;13.10;7.00;;;;;;;19.83;68.04;100010.42;123913;1099;104299;-80
2022/06/14 03:14:24;;;;;;;11.27;6.73;;;;;;;19.86;67.43;100021.04;123926;1099;104364;-81
2022/06/14 03:17:18;;;;;;;11.50;6.63;;;;;;;19.91;67.67;100022.77;123935;1099;104294;-80
2022/06/14 03:20:12;;;;;;;13.15;6.90;;;;;;;19.98;68.00;100023.58;123765;1099;104419;-80
2022/06/14 03:22:48;;;;;;;13.27;6.67;;;;;;;20.02;67.87;100030.61;123763;1099;104699;-81
2022/06/14 03:25:25;;;;;;;10.00;6.47;;;;;;;20.09;67.69;100031.45;123753;1099;104647;-80
2022/06/14 03:28:01;;;;;;;11.60;6.47;;;;;;;20.15;67.61;100023.40;123771;1099;104373;-80
2022/06/14 03:30:34;;;;;;;10.23;6.20;;;;;;;20.21;68.29;100025.09;123890;1099;104210;-81
2022/06/14 03:33:07;;;;;;;17.57;6.67;;;;;;;20.31;67.87;100036.55;123947;1099;104245;-80
2022/06/14 03:35:40;;;;;;;12.70;6.28;;;;;;;20.39;68.04;100034.66;123962;1099;104341;-80
2022/06/14 03:38:13;;;;;;;13.08;6.65;;;;;;;20.46;67.81;100042.56;124432;1099;104261;-80
2022/06/14 03:40:44;;;;;;;12.43;6.10;;;;;;;20.53;68.56;100042.49;123602;1099;104235;-80
2022/06/14 03:43:13;;;;;;;12.33;6.20;;;;;;;20.57;68.65;100058.43;123689;1099;104680;-80
2022/06/14 03:45:51;;;;;;;15.67;6.07;;;;;;;20.62;68.48;100061.03;123563;1102;104326;-79
2022/06/14 03:48:20;;;;;;;13.43;6.10;;;;;;;20.62;68.78;100071.70;123513;1102;104373;-79
2022/06/14 03:51:00;;;;;;;10.93;6.03;;;;;;;20.63;68.57;100066.35;123927;1099;104185;-80
2022/06/14 03:53:49;;;;;;;14.13;6.13;;;;;;;20.61;67.74;100067.26;123922;1098;104389;-79
2022/06/14 03:56:40;;;;;;;10.60;5.37;;;;;;;20.58;68.00;100070.83;123660;1099;104307;-79
2022/06/14 03:59:26;;;;;;;12.27;5.50;;;;;;;20.58;67.38;100093.95;123999;1099;104315;-79
2022/06/14 04:02:03;;;;;;;10.10;5.30;;;;;;;20.57;68.37;100093.08;123680;1099;108664;-79
2022/06/14 04:04:51;;;;;;;9.85;5.10;;;;;;;20.58;67.54;100089.48;123542;1099;104249;-79
2022/06/14 04:07:29;;;;;;;8.63;5.53;;;;;;;20.58;68.19;100100.16;123821;1099;104236;-79
2022/06/14 04:10:21;;;;;;;9.67;5.27;;;;;;;20.58;67.79;100093.95;123546;1099;104235;-79
2022/06/14 04:13:02;;;;;;;14.20;5.00;;;;;;;20.60;67.47;100108.13;123722;1099;104328;-79
2022/06/14 04:15:39;;;;;;;10.97;4.87;;;;;;;20.62;66.84;100111.68;123623;1098;104303;-78
2022/06/14 04:18:35;;;;;;;9.70;5.10;;;;;;;20.67;67.24;100103.67;123597;1099;104248;-79
2022/06/14 04:21:14;;;;;;;11.13;4.90;;;;;;;20.72;67.28;100115.14;123832;1099;104367;-78
2022/06/14 04:23:53;;;;;;;10.50;4.90;;;;;;;20.76;67.10;100124.88;123449;1099;104657;-78
2022/06/14 04:26:30;;;;;;;6.03;3.97;;;;;;;20.72;66.97;100120.48;123359;1099;104400;-79
2022/06/14 04:29:10;;;;;;;8.20;4.10;;;;;;;20.70;67.23;100120.50;123790;1099;104336;-78
2022/06/14 04:31:42;;;;;;;8.03;4.07;;;;;;;20.70;67.10;100120.50;124621;1099;104338;-79
2022/06/14 04:34:18;;;;;;;15.17;4.40;;;;;;;20.70;65.74;100136.49;124050;1099;104332;-78
2022/06/14 04:36:55;;;;;;;12.23;4.50;;;;;;;20.71;65.79;100132.94;124063;1099;104376;-79
2022/06/14 04:39:31;;;;;;;13.20;4.50;;;;;;;20.75;66.84;100139.97;124014;1099;104299;-80
2022/06/14 04:42:04;;;;;;;11.23;4.57;;;;;;;20.79;66.29;100139.05;124523;1099;104492;-80
2022/06/14 04:44:40;;;;;;;7.60;4.12;;;;;;;20.82;65.79;100148.81;124629;1099;104246;-80
2022/06/14 04:47:15;;;;;;;8.37;4.30;;;;;;;20.85;66.34;100139.87;124396;1099;104644;-80
2022/06/14 04:49:48;;;;;;;7.63;4.00;;;;;;;20.85;65.96;100151.44;124712;1099;104492;-79
2022/06/14 04:52:21;;;;;;;7.65;4.30;;;;;;;20.84;65.62;100157.66;124847;1099;104274;-80
2022/06/14 04:54:57;;;;;;;11.48;4.03;;;;;;;20.91;66.03;100158.46;124589;1099;104236;-79
2022/06/14 04:57:35;;;;;;;9.50;5.03;;;;;;;21.01;65.18;100168.12;124655;1099;104335;-79
2022/06/14 05:00:10;;;;;;;8.17;4.60;;;;;;;21.12;64.75;100170.66;124851;1099;104241;-80
2022/06/14 05:02:44;;;;;;;10.33;4.20;;;;;;;21.24;64.72;100167.83;124631;1099;104858;-80
2022/06/14 05:05:26;;;;;;;7.63;3.63;;;;;;;21.37;64.03;100177.41;124311;1099;104292;-79
2022/06/14 05:08:00;;;;;;;6.67;3.33;;;;;;;21.42;63.33;100196.03;124727;1099;104358;-79
2022/06/14 05:10:35;;;;;;;7.40;3.83;;;;;;;21.45;62.96;100185.31;124873;1099;104235;-78
2022/06/14 05:13:09;;;;;;;5.17;3.30;;;;;;;21.48;62.88;100184.41;124945;1099;104235;-79
2022/06/14 05:15:46;;;;;;;7.77;3.50;;;;;;;21.51;63.42;100193.27;125216;1099;104373;-79
2022/06/14 05:18:22;;;;;;;11.60;4.00;;;;;;;21.54;62.61;100190.56;124608;1099;104398;-80
2022/06/14 05:20:58;;;;;;;9.77;3.87;;;;;;;21.54;62.16;100187.89;124992;1099;104395;-79
2022/06/14 05:23:33;;;;;;;8.17;3.90;;;;;;;21.59;61.73;100194.96;125129;1099;104229;-80
2022/06/14 05:26:11;;;;;;;6.43;3.67;;;;;;;21.57;62.29;100192.31;125429;1099;102929;-79
2022/06/14 05:29:00;;;;;;;8.70;4.00;;;;;;;21.52;61.58;100207.52;125910;1099;102237;-80
2022/06/14 05:31:42;;;;;;;11.40;3.57;;;;;;;21.43;61.21;100199.61;124236;1099;104284;-80
2022/06/14 05:34:21;;;;;;;11.67;3.70;;;;;;;21.32;60.98;100202.42;125219;1098;104190;-80
2022/06/14 05:36:59;;;;;;;11.93;3.80;;;;;;;21.22;61.14;100206.09;124963;1102;104258;-80
2022/06/14 05:39:35;;;;;;;10.27;3.80;;;;;;;21.15;61.54;100207.97;124909;1099;104182;-80
2022/06/14 05:42:12;;;;;;;9.73;3.43;;;;;;;21.08;60.60;100224.94;125430;1099;104476;-79
2022/06/14 05:44:49;;;;;;;7.93;3.60;;;;;;;21.04;61.12;100226.77;124175;1099;104296;-79
2022/06/14 05:47:44;;;;;;;8.40;3.90;;;;;;;21.00;61.16;100217.94;125402;1098;104163;-80
2022/06/14 05:50:36;;;;;;;11.77;4.53;;;;;;;21.03;60.75;100218.78;125404;1099;104354;-80
2022/06/14 05:53:10;;;;;;;9.70;3.70;;;;;;;21.04;61.23;100226.77;125473;1098;104200;-80
2022/06/14 05:55:58;;;;;;;10.47;3.57;;;;;;;21.06;61.72;100235.62;125116;1100;103119;-80
2022/06/14 05:59:08;;;;;;;6.77;4.00;;;;;;;21.10;61.46;100234.70;126426;1099;102416;-81
2022/06/14 06:01:56;;;;;;;5.17;3.63;;;;;;;21.16;61.17;100226.63;126212;1098;104373;-81
2022/06/14 06:04:43;;;;;;;7.80;3.60;;;;;;;21.17;60.70;100236.38;125878;1099;102308;-82
2022/06/14 06:07:25;;;;;;;11.73;3.73;;;;;;;21.21;61.17;100247.01;125617;1099;103578;-80
2022/06/14 06:10:14;;;;;;;5.57;3.50;;;;;;;21.26;60.47;100250.53;125496;1099;104172;-81
2022/06/14 06:12:55;;;;;;;7.27;3.13;;;;;;;21.27;61.03;100254.94;125499;1099;102332;-81
2022/06/14 06:15:30;;;;;;;8.27;3.60;;;;;;;21.34;60.62;100245.97;125291;1100;103550;-79
2022/06/14 06:18:12;;;;;;;8.93;3.50;;;;;;;21.46;60.51;100258.29;125493;1100;104274;-80
2022/06/14 06:20:50;;;;;;;9.27;3.20;;;;;;;21.54;59.94;100254.63;125617;1099;104303;-79
2022/06/14 06:23:25;;;;;;;6.47;3.17;;;;;;;21.60;59.60;100266.12;125554;1099;102079;-79
2022/06/14 06:25:58;;;;;;;6.07;3.27;;;;;;;21.65;60.06;100254.48;126039;1099;103722;-79
2022/06/14 06:28:41;;;;;;;;;;;;;;;21.68;59.66;100253.57;125683;1099;103300;-78
2022/06/14 06:31:28;;;;;;;8.63;3.60;;;;;;;21.73;60.25;100265.06;125337;1102;104168;-80
2022/06/14 06:34:11;;;;;;;7.73;3.10;;;;;;;21.71;59.12;100274.89;125295;1099;104254;-80
2022/06/14 06:36:54;;;;;;;6.80;3.10;;;;;;;21.66;59.75;100263.36;125425;1102;104158;-81
2022/06/14 06:39:54;;;;;;;5.57;3.10;;;;;;;21.66;59.04;100279.39;125475;1099;102537;-81
2022/06/14 06:49:12;;;;;;;7.43;3.23;;;;;;;21.88;59.01;100291.55;126033;1102;103028;-80
2022/06/14 06:52:02;;;;;;;9.05;3.70;;;;;;;21.90;58.12;100288.86;125937;1102;101909;-78
2022/06/14 06:54:55;;;;;;;7.93;3.20;;;;;;;22.00;58.91;100290.50;124964;1105;103851;-77
2022/06/14 06:57:34;;;;;;;7.13;3.63;;;;;;;22.16;58.37;100287.58;124460;1102;104207;-78
2022/06/14 07:00:17;;;;;;;9.53;3.40;;;;;;;22.31;57.80;100286.50;125152;1102;102950;-77
2022/06/14 07:02:55;;;;;;;4.03;3.00;;;;;;;22.51;58.13;100287.05;124422;1102;104238;-77
2022/06/14 07:05:37;;;;;;;8.90;3.37;;;;;;;22.72;56.70;100311.64;124547;1102;104221;-79
2022/06/14 07:08:36;;;;;;;7.87;3.30;;;;;;;22.82;56.12;100293.66;125481;1102;102644;-84
2022/06/14 07:11:38;;;;;;;6.37;3.03;;;;;;;22.81;56.63;100303.45;125180;1102;103304;-80
2022/06/14 07:14:24;;;;;;;5.37;2.97;;;;;;;22.82;56.97;100313.26;125213;1105;103226;-78
2022/06/14 07:17:19;;;;;;;8.47;3.30;;;;;;;22.88;54.75;100310.48;124629;1099;108915;-80
2022/06/14 07:20:09;;;;;;;5.37;3.00;;;;;;;23.03;55.94;100305.74;125298;1099;102811;-81
2022/06/14 07:22:50;;;;;;;8.13;2.97;;;;;;;23.13;55.62;100307.38;126185;1099;103033;-81
2022/06/14 07:25:33;;;;;;;8.27;2.80;;;;;;;23.19;54.07;100320.65;124512;1099;104281;-80
2022/06/14 07:28:11;;;;;;;3.53;2.73;;;;;;;23.33;52.98;100310.55;125538;1099;104104;-80
2022/06/14 07:30:51;;;;;;;9.20;2.87;;;;;;;23.47;53.02;100322.78;124487;1102;104727;-81
2022/06/14 07:33:28;;;;;;;6.10;2.77;;;;;;;23.64;53.17;100342.05;124705;1099;103193;-81
2022/06/14 07:36:03;;;;;;;3.13;2.40;;;;;;;23.81;52.16;100330.08;124911;1099;104373;-80
2022/06/14 07:42:09;;;;;;;5.50;2.60;;;;;;;24.25;51.97;100336.29;125652;1099;104265;-81
2022/06/14 07:45:01;;;;;;;11.80;2.80;;;;;;;24.39;52.03;100341.33;125657;1099;104258;-81
2022/06/14 07:47:40;;;;;;;8.90;2.70;;;;;;;24.57;51.32;100348.97;124906;1099;104255;-80
2022/06/14 07:51:19;;;;;;;7.17;2.60;;;;;;;24.74;50.67;100340.50;124697;1099;104227;-83
2022/06/14 07:54:01;;;;;;;8.37;2.83;;;;;;;24.83;49.25;100338.49;125566;1099;104280;-81
2022/06/14 07:56:49;;;;;;;4.13;2.43;;;;;;;24.88;49.09;100345.48;125398;1100;103228;-80
2022/06/14 07:59:40;;;;;;;5.97;2.30;;;;;;;24.86;47.54;100357.20;126041;1099;102784;-82
2022/06/14 08:02:44;;;;;;;;;;;;;;;;;;;;;
2022/06/14 08:05:48;;;;;;;4.70;2.07;;;;;;;25.03;47.34;100343.34;125953;1099;103819;-82
2022/06/14 08:08:25;;;;;;;3.30;2.20;;;;;;;25.21;47.16;100353.59;125603;1099;107631;-80
2022/06/14 08:11:02;;;;;;;2.37;1.90;;;;;;;25.39;46.59;100354.90;125411;1099;104245;-80
2022/06/14 08:13:39;;;;;;;9.20;2.03;;;;;;;25.50;46.49;100357.28;124394;1102;104297;-80
2022/06/14 08:16:13;;;;;;;5.53;2.30;;;;;;;25.69;46.87;100352.25;125345;1102;104169;-83
2022/06/14 08:18:50;;;;;;;6.10;1.97;;;;;;;25.86;45.69;100348.20;126301;1102;122698;-81
2022/06/14 08:21:28;;;;;;;8.53;2.10;;;;;;;25.89;45.18;100356.17;125828;1099;102873;-80
2022/06/14 08:24:05;;;;;;;5.33;2.07;;;;;;;26.03;44.38;100363.86;125413;1099;104300;-81
2022/06/14 08:26:44;;;;;;;4.57;1.87;;;;;;;26.06;45.30;100358.39;125094;1100;103475;-79
2022/06/14 08:29:23;;;;;;;3.67;1.93;;;;;;;26.09;44.51;100364.54;125539;1099;104108;-82
2022/06/14 08:32:02;;;;;;;2.97;1.90;;;;;;;25.98;43.13;100377.44;125204;1099;104332;-80
2022/06/14 08:34:47;;;;;;;5.83;2.07;;;;;;;25.93;42.91;100357.82;124620;1099;104390;-80
2022/06/14 08:37:31;;;;;;;1.97;1.80;;;;;;;25.97;43.53;100351.44;125533;1099;104060;-79
2022/06/14 08:40:18;;;;;;;3.25;1.90;;;;;;;25.90;43.32;100357.91;125740;1098;104165;-80
2022/06/14 08:42:51;;;;;;;5.10;2.20;;;;;;;25.82;43.12;100366.20;125272;1099;104430;-80
2022/06/14 08:45:34;;;;;;;3.70;2.03;;;;;;;25.83;42.64;100360.78;125350;1099;102768;-80
2022/06/14 08:48:28;;;;;;;4.50;1.60;;;;;;;25.84;42.15;100359.00;125452;1099;104204;-79
2022/06/14 08:51:10;;;;;;;2.70;2.07;;;;;;;26.00;41.79;100356.75;125418;1099;103229;-78
2022/06/14 08:54:13;;;;;;;4.80;1.80;;;;;;;26.12;41.26;100371.64;125235;1099;104169;-80
2022/06/14 08:57:16;;;;;;;1.80;1.70;;;;;;;26.11;40.92;100361.80;125565;1099;103688;-80
2022/06/14 09:00:22;;;;;;;6.23;1.70;;;;;;;26.11;41.33;100373.43;125528;1099;118777;-80
2022/06/14 09:03:27;;;;;;;4.77;1.63;;;;;;;25.99;40.12;100361.27;125827;1099;104146;-81
2022/06/14 09:06:54;;;;;;;5.83;1.87;;;;;;;25.81;39.74;100370.70;125953;1098;104367;-81
2022/06/14 09:09:54;;;;;;;4.03;1.80;;;;;;;25.70;39.91;100356.72;125850;1099;104239;-82
2022/06/14 09:13:07;;;;;;;1.97;1.77;;;;;;;25.51;39.93;100372.48;125231;1099;102768;-81
2022/06/14 09:16:18;;;;;;;3.90;1.57;;;;;;;25.60;40.67;100376.70;125171;1102;104233;-82
2022/06/14 09:19:06;;;;;;;5.07;1.97;;;;;;;25.67;40.52;100372.92;125587;1098;104102;-81
2022/06/14 09:22:01;;;;;;;3.50;1.87;;;;;;;25.64;40.52;100381.95;125430;1099;104165;-82
2022/06/14 09:24:53;;;;;;;5.97;1.70;;;;;;;25.69;40.64;100381.81;125977;1099;103801;-80
2022/06/14 09:27:43;;;;;;;3.83;1.97;;;;;;;25.76;40.56;100369.97;125621;1099;104173;-80
2022/06/14 09:30:42;;;;;;;6.43;1.90;;;;;;;25.76;40.02;100383.41;125420;1099;102899;-80
2022/06/14 09:33:34;;;;;;;2.80;1.90;;;;;;;25.83;40.68;100378.73;125463;1099;104619;-79
2022/06/14 09:36:38;;;;;;;5.83;2.00;;;;;;;25.83;40.24;100376.91;125982;1099;102775;-81
2022/06/14 09:39:38;;;;;;;2.52;1.65;;;;;;;25.94;40.04;100371.22;125567;1099;104166;-79
2022/06/14 09:42:25;;;;;;;5.70;2.03;;;;;;;26.04;40.24;100370.97;125590;1099;103168;-80
2022/06/14 09:45:21;;;;;;;6.50;2.07;;;;;;;26.05;40.21;100378.99;125332;1099;104317;-80
2022/06/14 09:48:17;;;;;;;4.70;2.13;;;;;;;25.89;40.47;100372.30;125215;1102;102884;-80
2022/06/14 09:51:18;;;;;;;3.50;1.80;;;;;;;25.76;40.50;100390.59;125446;1102;103822;-81
2022/06/14 09:54:19;;;;;;;2.47;1.53;;;;;;;25.73;40.58;100383.50;125500;1102;104169;-80
2022/06/14 09:57:28;;;;;;;5.00;1.87;;;;;;;25.75;40.52;100389.70;125523;1102;104211;-79
2022/06/14 10:00:27;;;;;;;4.13;2.20;;;;;;;25.72;39.94;100403.22;126021;1105;104638;-81
2022/06/14 10:03:39;;;;;;;5.07;2.00;;;;;;;25.79;40.45;100398.58;125545;1102;104283;-81
2022/06/14 10:06:44;;;;;;;3.05;2.00;;;;;;;25.90;40.47;100395.55;125537;1102;104342;-81
2022/06/14 10:09:29;;;;;;;4.30;1.80;;;;;;;26.01;39.80;100396.16;125623;1102;104209;-79
2022/06/14 10:12:19;;;;;;;4.20;1.73;;;;;;;26.09;39.59;100406.69;125577;1102;103017;-79
2022/06/14 10:15:03;;;;;;;5.07;2.13;;;;;;;26.19;39.93;100394.70;125489;1102;104594;-80
2022/06/14 10:17:56;;;;;;;5.77;1.57;;;;;;;26.17;39.30;100407.33;125321;1102;102470;-79
2022/06/14 10:20:50;;;;;;;6.80;2.13;;;;;;;26.11;39.46;100405.70;125758;1099;104912;-80
2022/06/14 10:23:41;;;;;;;10.57;2.00;;;;;;;25.92;38.59;100409.84;125525;1099;102955;-79
2022/06/14 10:29:40;;;;;;;4.67;1.85;;;;;;;25.73;39.07;100399.63;125380;1099;103263;-80
2022/06/14 10:32:57;;;;;;;4.30;1.90;;;;;;;25.78;38.83;100402.17;125981;1099;108382;-79
2022/06/14 10:35:39;;;;;;;2.57;1.30;;;;;;;25.79;38.06;100393.20;125659;1099;104215;-80
2022/06/14 10:38:37;;;;;;;2.03;1.63;;;;;;;25.78;38.32;100404.86;125413;1100;102445;-79
2022/06/14 10:41:19;;;;;;;5.33;2.07;;;;;;;25.79;38.50;100403.95;125542;1099;104214;-79
2022/06/14 10:43:55;;;;;;;5.87;1.70;;;;;;;25.92;38.25;100404.47;125261;1099;104363;-79
2022/06/14 10:46:27;;;;;;;2.73;1.80;;;;;;;25.90;38.17;100392.85;125295;1102;104261;-79
2022/06/14 10:49:44;;;;;;;4.80;1.80;;;;;;;25.81;38.41;100391.34;125605;1099;104296;-79
2022/06/14 10:52:44;;;;;;;5.53;1.67;;;;;;;25.72;38.19;100400.53;125500;1099;103536;-78
2022/06/14 10:55:37;;;;;;;3.33;2.10;;;;;;;25.69;38.49;100389.87;126249;1099;102222;-79
2022/06/14 10:58:32;;;;;;;4.57;1.53;;;;;;;25.62;37.99;100401.73;125875;1099;102940;-79
2022/06/14 11:01:18;;;;;;;4.40;1.87;;;;;;;25.61;37.56;100391.91;126055;1099;102973;-79
2022/06/14 11:04:05;;;;;;;1.77;1.60;;;;;;;25.64;38.46;100373.88;125585;1099;102818;-81
2022/06/14 11:07:02;;;;;;;2.60;1.73;;;;;;;25.68;37.76;100382.76;125711;1099;102180;-80
2022/06/14 11:09:53;;;;;;;6.37;1.83;;;;;;;25.67;37.07;100389.05;125410;1101;102661;-81
2022/06/14 11:12:59;;;;;;;2.07;1.77;;;;;;;25.68;37.64;100389.92;125585;1099;102797;-80
2022/06/14 11:15:40;;;;;;;6.17;2.03;;;;;;;25.59;37.57;100383.89;125723;1099;104332;-81
2022/06/14 11:18:52;;;;;;;;;;;;;;;;;;;;;
2022/06/14 11:21:43;;;;;;;2.60;1.70;;;;;;;25.72;37.30;100364.73;125315;1102;104158;-81
2022/06/14 11:24:32;;;;;;;4.23;1.83;;;;;;;25.85;37.45;100368.80;125566;1102;102923;-80
2022/06/14 11:27:11;;;;;;;3.27;1.93;;;;;;;25.88;36.48;100375.91;125296;1102;103508;-82
2022/06/14 11:30:11;;;;;;;7.53;1.97;;;;;;;25.84;36.74;100369.75;125463;1102;104178;-81
2022/06/14 11:32:52;;;;;;;3.67;1.43;;;;;;;25.79;37.08;100374.39;125015;1102;104229;-80
2022/06/14 11:35:45;;;;;;;3.57;2.10;;;;;;;25.72;36.47;100408.59;125389;1102;104341;-81
2022/06/14 11:38:58;;;;;;;2.67;1.70;;;;;;;25.74;36.40;100368.25;125352;1102;104232;-80
2022/06/14 11:41:56;;;;;;;3.03;1.87;;;;;;;25.67;36.88;100364.87;125572;1102;104716;-79
2022/06/14 11:45:11;;;;;;;;;;;;;;;;;;;;;
2022/06/14 11:48:13;;;;;;;4.67;1.83;;;;;;;25.76;36.97;100356.53;125791;1102;102151;-81
2022/06/14 11:50:54;;;;;;;9.53;2.10;;;;;;;25.75;37.38;100362.83;125313;1102;104382;-80
2022/06/14 11:53:49;;;;;;;3.50;2.13;;;;;;;25.77;37.35;100352.94;125586;1099;104289;-78
2022/06/14 11:56:54;;;;;;;6.53;2.40;;;;;;;25.80;37.41;100370.75;125083;1099;104064;-79
2022/06/14 12:03:15;;;;;;;6.33;1.83;;;;;;;25.83;37.75;100350.03;126487;1099;102507;-79
2022/06/14 12:06:14;;;;;;;4.20;1.67;;;;;;;25.93;37.35;100352.45;126329;1099;101781;-81
2022/06/14 12:09:24;;;;;;;4.42;1.90;;;;;;;25.92;36.73;100350.70;126454;1098;102509;-81
2022/06/14 12:12:17;;;;;;;2.20;2.00;;;;;;;25.87;37.04;100348.16;126202;1102;103752;-80
2022/06/14 12:15:10;;;;;;;4.63;2.00;;;;;;;25.94;37.15;100346.16;125684;1102;107475;-80
2022/06/14 12:18:00;;;;;;;;;;;;;;;;;;;;;
2022/06/14 12:24:13;;;;;;;5.97;1.90;;;;;;;26.00;37.20;100363.00;125441;1099;102571;-80
2022/06/14 12:27:09;;;;;;;;;;;;;;;;;;;;;
2022/06/14 12:30:47;;;;;;;;;;;;;;;;;;;;;
2022/06/14 12:33:49;;;;;;;2.60;2.40;;;;;;;25.74;37.22;100349.44;125337;1102;102657;-79
2022/06/14 12:37:28;;;;;;;6.63;2.60;;;;;;;25.81;37.34;100370.70;124461;1102;103715;-80
2022/06/14 12:40:27;;;;;;;8.57;2.90;;;;;;;25.73;36.96;100356.63;125152;1103;104316;-80
2022/06/14 12:44:12;;;;;;;;;;;;;;;;;;;;;
2022/06/14 12:47:12;;;;;;;5.87;2.90;;;;;;;25.92;36.92;100358.77;125082;1103;104261;-81
2022/06/14 12:50:21;;;;;;;;;;;;;;;;;;;;;
2022/06/14 12:53:42;;;;;;;5.07;2.40;;;;;;;26.06;36.83;100356.56;125024;1104;103773;-80
2022/06/14 12:56:45;;;;;;;7.33;2.60;;;;;;;25.99;36.91;100352.30;124186;1105;104450;-80
2022/06/14 12:59:58;;;;;;;;;;;;;;;25.88;36.36;100357.09;125238;1102;104583;-80
2022/06/14 13:03:26;;;;;;;;;;;;;;;;;;;;;
2022/06/14 13:06:53;;;;;;;3.80;2.50;;;;;;;25.62;36.58;100364.12;125272;1102;102900;-81
2022/06/14 13:09:36;;;;;;;7.37;2.60;;;;;;;25.63;36.75;100368.55;125211;1102;104294;-78